sensor_id;sensor_type;location;lat;lon;timestamp;pressure;altitude;pressure_sealevel;temperature;humidity
79577;BME280;69045;48.136;11.386;2023-05-19T00:02:05;95750.88;;;12.76;60.57
79577;BME280;69045;48.136;11.386;2023-05-19T00:04:35;95746.03;;;12.73;60.37
79577;BME280;69045;48.136;11.386;2023-05-19T00:07:09;95749.41;;;12.80;59.92
79577;BME280;69045;48.136;11.386;2023-05-19T00:09:38;95737.56;;;12.90;59.90
79577;BME280;69045;48.136;11.386;2023-05-19T00:12:07;95745.97;;;12.98;59.89
79577;BME280;69045;48.136;11.386;2023-05-19T00:14:37;95732.25;;;12.96;60.27
79577;BME280;69045;48.136;11.386;2023-05-19T00:17:08;95736.78;;;12.89;60.45
79577;BME280;69045;48.136;11.386;2023-05-19T00:19:36;95731.66;;;12.94;60.37
79577;BME280;69045;48.136;11.386;2023-05-19T00:22:05;95734.28;;;12.94;60.58
79577;BME280;69045;48.136;11.386;2023-05-19T00:24:33;95734.06;;;12.96;60.64
79577;BME280;69045;48.136;11.386;2023-05-19T00:27:01;95733.25;;;12.95;60.44
79577;BME280;69045;48.136;11.386;2023-05-19T00:29:30;95735.28;;;12.93;60.64
79577;BME280;69045;48.136;11.386;2023-05-19T00:31:58;95734.44;;;12.81;61.28
79577;BME280;69045;48.136;11.386;2023-05-19T00:34:27;95736.47;;;12.79;61.30
79577;BME280;69045;48.136;11.386;2023-05-19T00:36:56;95732.00;;;12.79;61.77
79577;BME280;69045;48.136;11.386;2023-05-19T00:39:24;95730.72;;;12.89;61.78
79577;BME280;69045;48.136;11.386;2023-05-19T00:41:52;95725.72;;;12.99;61.27
79577;BME280;69045;48.136;11.386;2023-05-19T00:44:21;95717.19;;;13.03;61.22
79577;BME280;69045;48.136;11.386;2023-05-19T00:46:49;95720.84;;;13.02;61.12
79577;BME280;69045;48.136;11.386;2023-05-19T00:49:17;95722.59;;;12.90;61.31
79577;BME280;69045;48.136;11.386;2023-05-19T00:51:47;95724.19;;;12.91;61.53
79577;BME280;69045;48.136;11.386;2023-05-19T00:54:17;95710.63;;;12.94;61.59
79577;BME280;69045;48.136;11.386;2023-05-19T00:56:47;95709.16;;;12.98;61.41
79577;BME280;69045;48.136;11.386;2023-05-19T00:59:16;95706.19;;;13.06;61.13
79577;BME280;69045;48.136;11.386;2023-05-19T01:01:45;95705.41;;;13.06;61.38
79577;BME280;69045;48.136;11.386;2023-05-19T01:04:15;95705.78;;;13.09;61.37
79577;BME280;69045;48.136;11.386;2023-05-19T01:06:43;95707.22;;;13.05;61.26
79577;BME280;69045;48.136;11.386;2023-05-19T01:09:13;95706.75;;;12.97;61.97
79577;BME280;69045;48.136;11.386;2023-05-19T01:11:42;95711.13;;;13.03;61.64
79577;BME280;69045;48.136;11.386;2023-05-19T01:14:10;95707.00;;;13.07;61.83
79577;BME280;69045;48.136;11.386;2023-05-19T01:16:43;95702.13;;;13.10;61.41
79577;BME280;69045;48.136;11.386;2023-05-19T01:19:31;95710.47;;;13.07;61.37
79577;BME280;69045;48.136;11.386;2023-05-19T01:22:15;95706.19;;;13.06;61.74
79577;BME280;69045;48.136;11.386;2023-05-19T01:25:10;95717.53;;;13.07;61.39
79577;BME280;69045;48.136;11.386;2023-05-19T01:30:48;95717.03;;;12.98;61.83
79577;BME280;69045;48.136;11.386;2023-05-19T01:33:21;95715.19;;;12.99;61.99
79577;BME280;69045;48.136;11.386;2023-05-19T01:35:53;95718.63;;;12.99;61.83
79577;BME280;69045;48.136;11.386;2023-05-19T01:38:24;95715.28;;;12.92;62.44
79577;BME280;69045;48.136;11.386;2023-05-19T01:40:55;95726.25;;;12.89;62.26
79577;BME280;69045;48.136;11.386;2023-05-19T01:43:25;95718.38;;;12.89;62.81
79577;BME280;69045;48.136;11.386;2023-05-19T01:45:56;95716.16;;;12.86;62.33
79577;BME280;69045;48.136;11.386;2023-05-19T01:48:26;95716.25;;;12.79;62.60
79577;BME280;69045;48.136;11.386;2023-05-19T01:50:56;95717.19;;;12.85;62.97
79577;BME280;69045;48.136;11.386;2023-05-19T01:53:25;95722.03;;;12.88;63.11
79577;BME280;69045;48.136;11.386;2023-05-19T01:55:55;95722.03;;;12.88;63.20
79577;BME280;69045;48.136;11.386;2023-05-19T01:58:31;95720.13;;;12.95;63.04
79577;BME280;69045;48.136;11.386;2023-05-19T02:01:15;95715.66;;;12.96;62.43
79577;BME280;69045;48.136;11.386;2023-05-19T02:04:06;95718.53;;;12.94;62.51
79577;BME280;69045;48.136;11.386;2023-05-19T02:06:45;95713.44;;;12.93;62.72
79577;BME280;69045;48.136;11.386;2023-05-19T02:09:23;95710.53;;;13.01;62.55
79577;BME280;69045;48.136;11.386;2023-05-19T02:11:58;95706.09;;;13.01;62.38
79577;BME280;69045;48.136;11.386;2023-05-19T02:14:31;95709.53;;;13.02;62.37
79577;BME280;69045;48.136;11.386;2023-05-19T02:17:03;95709.16;;;12.98;62.45
79577;BME280;69045;48.136;11.386;2023-05-19T02:19:37;95708.00;;;12.94;62.53
79577;BME280;69045;48.136;11.386;2023-05-19T02:22:07;95703.88;;;12.98;62.49
79577;BME280;69045;48.136;11.386;2023-05-19T02:24:35;95708.13;;;12.99;62.51
79577;BME280;69045;48.136;11.386;2023-05-19T02:27:04;95709.72;;;13.00;62.25
79577;BME280;69045;48.136;11.386;2023-05-19T02:29:33;95704.53;;;12.94;62.53
79577;BME280;69045;48.136;11.386;2023-05-19T02:32:04;95705.00;;;12.91;62.86
79577;BME280;69045;48.136;11.386;2023-05-19T02:34:33;95704.41;;;12.89;62.72
79577;BME280;69045;48.136;11.386;2023-05-19T02:37:03;95709.59;;;12.95;62.51
79577;BME280;69045;48.136;11.386;2023-05-19T02:39:33;95698.72;;;12.92;62.65
79577;BME280;69045;48.136;11.386;2023-05-19T02:42:01;95700.09;;;12.94;62.30
79577;BME280;69045;48.136;11.386;2023-05-19T02:44:29;95703.75;;;12.93;62.54
79577;BME280;69045;48.136;11.386;2023-05-19T02:46:58;95698.72;;;12.92;62.77
79577;BME280;69045;48.136;11.386;2023-05-19T02:49:28;95698.13;;;12.90;62.70
79577;BME280;69045;48.136;11.386;2023-05-19T02:52:01;95699.09;;;12.95;62.82
79577;BME280;69045;48.136;11.386;2023-05-19T02:54:30;95696.22;;;12.97;62.79
79577;BME280;69045;48.136;11.386;2023-05-19T02:56:58;95694.25;;;12.92;62.65
79577;BME280;69045;48.136;11.386;2023-05-19T02:59:26;95690.50;;;13.00;62.77
79577;BME280;69045;48.136;11.386;2023-05-19T03:01:57;95688.69;;;13.00;62.64
79577;BME280;69045;48.136;11.386;2023-05-19T03:04:28;95690.03;;;12.91;62.30
79577;BME280;69045;48.136;11.386;2023-05-19T03:06:56;95690.31;;;12.83;63.00
79577;BME280;69045;48.136;11.386;2023-05-19T03:09:24;95685.78;;;12.90;62.93
79577;BME280;69045;48.136;11.386;2023-05-19T03:11:52;95688.66;;;12.89;62.55
79577;BME280;69045;48.136;11.386;2023-05-19T03:14:22;95681.88;;;12.81;62.92
79577;BME280;69045;48.136;11.386;2023-05-19T03:16:50;95685.94;;;12.77;63.06
79577;BME280;69045;48.136;11.386;2023-05-19T03:19:19;95682.22;;;12.84;63.15
79577;BME280;69045;48.136;11.386;2023-05-19T03:21:50;95681.63;;;12.82;62.91
79577;BME280;69045;48.136;11.386;2023-05-19T03:24:18;95681.72;;;12.76;63.21
79577;BME280;69045;48.136;11.386;2023-05-19T03:26:46;95691.75;;;12.67;63.26
79577;BME280;69045;48.136;11.386;2023-05-19T03:29:15;95682.81;;;12.68;63.70
79577;BME280;69045;48.136;11.386;2023-05-19T03:31:44;95679.59;;;12.66;63.70
79577;BME280;69045;48.136;11.386;2023-05-19T03:34:14;95683.25;;;12.65;63.78
79577;BME280;69045;48.136;11.386;2023-05-19T03:36:42;95679.81;;;12.65;63.67
79577;BME280;69045;48.136;11.386;2023-05-19T03:39:15;95677.88;;;12.60;64.07
79577;BME280;69045;48.136;11.386;2023-05-19T03:41:46;95666.91;;;12.63;64.30
79577;BME280;69045;48.136;11.386;2023-05-19T03:44:15;95662.59;;;12.69;64.08
79577;BME280;69045;48.136;11.386;2023-05-19T03:46:43;95665.94;;;12.76;63.54
79577;BME280;69045;48.136;11.386;2023-05-19T03:49:17;95667.31;;;12.78;63.63
79577;BME280;69045;48.136;11.386;2023-05-19T03:52:05;95671.44;;;12.74;63.68
79577;BME280;69045;48.136;11.386;2023-05-19T03:54:47;95675.75;;;12.69;64.09
79577;BME280;69045;48.136;11.386;2023-05-19T03:57:15;95674.78;;;12.63;64.35
79577;BME280;69045;48.136;11.386;2023-05-19T03:59:43;95671.94;;;12.65;64.37
79577;BME280;69045;48.136;11.386;2023-05-19T04:02:12;95673.53;;;12.66;64.41
79577;BME280;69045;48.136;11.386;2023-05-19T04:04:42;95671.72;;;12.66;64.14
79577;BME280;69045;48.136;11.386;2023-05-19T04:07:10;95666.69;;;12.65;64.19
79577;BME280;69045;48.136;11.386;2023-05-19T04:09:41;95671.94;;;12.65;64.59
79577;BME280;69045;48.136;11.386;2023-05-19T04:12:11;95664.44;;;12.68;64.71
79577;BME280;69045;48.136;11.386;2023-05-19T04:14:39;95675.50;;;12.70;64.70
79577;BME280;69045;48.136;11.386;2023-05-19T04:17:08;95669.06;;;12.66;64.53
79577;BME280;69045;48.136;11.386;2023-05-19T04:19:37;95664.44;;;12.68;64.14
79577;BME280;69045;48.136;11.386;2023-05-19T04:22:06;95667.16;;;12.73;64.36
79577;BME280;69045;48.136;11.386;2023-05-19T04:24:34;95670.75;;;12.79;64.23
79577;BME280;69045;48.136;11.386;2023-05-19T04:27:02;95669.59;;;12.75;64.39
79577;BME280;69045;48.136;11.386;2023-05-19T04:29:32;95679.50;;;12.73;64.06
79577;BME280;69045;48.136;11.386;2023-05-19T04:32:01;95677.03;;;12.78;64.96
79577;BME280;69045;48.136;11.386;2023-05-19T04:34:33;95672.56;;;12.78;64.79
79577;BME280;69045;48.136;11.386;2023-05-19T04:37:02;95674.78;;;12.81;64.58
79577;BME280;69045;48.136;11.386;2023-05-19T04:39:33;95671.19;;;12.94;64.70
79577;BME280;69045;48.136;11.386;2023-05-19T04:42:04;95668.56;;;12.94;64.14
79577;BME280;69045;48.136;11.386;2023-05-19T04:44:36;95670.50;;;12.99;64.34
79577;BME280;69045;48.136;11.386;2023-05-19T04:47:06;95672.47;;;13.03;64.18
79577;BME280;69045;48.136;11.386;2023-05-19T04:49:35;95669.97;;;13.08;63.05
79577;BME280;69045;48.136;11.386;2023-05-19T04:52:06;95671.59;;;13.09;63.85
79577;BME280;69045;48.136;11.386;2023-05-19T04:54:37;95663.03;;;13.14;63.84
79577;BME280;69045;48.136;11.386;2023-05-19T04:57:10;95670.97;;;13.26;63.50
79577;BME280;69045;48.136;11.386;2023-05-19T04:59:40;95661.63;;;13.30;63.28
79577;BME280;69045;48.136;11.386;2023-05-19T05:02:09;95662.28;;;13.25;63.46
79577;BME280;69045;48.136;11.386;2023-05-19T05:04:38;95665.03;;;13.30;63.19
79577;BME280;69045;48.136;11.386;2023-05-19T05:07:09;95667.13;;;13.40;62.88
79577;BME280;69045;48.136;11.386;2023-05-19T05:09:38;95665.09;;;13.42;62.92
79577;BME280;69045;48.136;11.386;2023-05-19T05:12:08;95657.91;;;13.49;62.84
79577;BME280;69045;48.136;11.386;2023-05-19T05:14:38;95654.13;;;13.57;62.70
79577;BME280;69045;48.136;11.386;2023-05-19T05:17:11;95658.81;;;13.66;62.45
79577;BME280;69045;48.136;11.386;2023-05-19T05:19:41;95651.31;;;13.82;62.05
79577;BME280;69045;48.136;11.386;2023-05-19T05:22:11;95656.78;;;13.92;61.43
79577;BME280;69045;48.136;11.386;2023-05-19T05:24:41;95647.97;;;13.98;61.17
79577;BME280;69045;48.136;11.386;2023-05-19T05:27:10;95650.81;;;14.08;61.23
79577;BME280;69045;48.136;11.386;2023-05-19T05:29:39;95652.66;;;14.08;61.03
79577;BME280;69045;48.136;11.386;2023-05-19T05:32:10;95642.84;;;14.03;60.65
79577;BME280;69045;48.136;11.386;2023-05-19T05:34:38;95649.13;;;14.02;61.14
79577;BME280;69045;48.136;11.386;2023-05-19T05:37:07;95652.88;;;13.94;61.26
79577;BME280;69045;48.136;11.386;2023-05-19T05:39:36;95652.91;;;14.06;60.87
79577;BME280;69045;48.136;11.386;2023-05-19T05:42:04;95658.28;;;14.11;60.11
79577;BME280;69045;48.136;11.386;2023-05-19T05:44:34;95662.97;;;14.21;60.63
79577;BME280;69045;48.136;11.386;2023-05-19T05:47:05;95661.59;;;14.30;60.16
79577;BME280;69045;48.136;11.386;2023-05-19T05:49:35;95662.72;;;14.34;60.20
79577;BME280;69045;48.136;11.386;2023-05-19T05:52:05;95667.75;;;14.36;60.37
79577;BME280;69045;48.136;11.386;2023-05-19T05:54:41;95660.22;;;14.28;60.03
79577;BME280;69045;48.136;11.386;2023-05-19T05:57:11;95658.38;;;14.40;60.18
79577;BME280;69045;48.136;11.386;2023-05-19T05:59:40;95659.06;;;14.47;59.08
79577;BME280;69045;48.136;11.386;2023-05-19T06:02:11;95657.81;;;14.50;58.80
79577;BME280;69045;48.136;11.386;2023-05-19T06:04:41;95663.63;;;14.63;58.60
79577;BME280;69045;48.136;11.386;2023-05-19T06:07:09;95660.38;;;14.85;58.64
79577;BME280;69045;48.136;11.386;2023-05-19T06:09:38;95658.28;;;14.87;57.95
79577;BME280;69045;48.136;11.386;2023-05-19T06:12:08;95662.28;;;14.89;58.05
79577;BME280;69045;48.136;11.386;2023-05-19T06:14:41;95662.09;;;15.08;58.30
79577;BME280;69045;48.136;11.386;2023-05-19T06:17:18;95665.47;;;15.32;57.55
79577;BME280;69045;48.136;11.386;2023-05-19T06:19:48;95650.50;;;15.54;57.27
79577;BME280;69045;48.136;11.386;2023-05-19T06:22:17;95655.59;;;15.72;56.58
79577;BME280;69045;48.136;11.386;2023-05-19T06:24:46;95656.31;;;15.84;55.59
79577;BME280;69045;48.136;11.386;2023-05-19T06:27:15;95656.47;;;15.95;55.74
79577;BME280;69045;48.136;11.386;2023-05-19T06:29:44;95647.72;;;16.11;55.06
79577;BME280;69045;48.136;11.386;2023-05-19T06:32:13;95645.66;;;16.13;55.31
79577;BME280;69045;48.136;11.386;2023-05-19T06:34:41;95649.22;;;16.24;54.27
79577;BME280;69045;48.136;11.386;2023-05-19T06:37:11;95651.59;;;16.25;54.65
79577;BME280;69045;48.136;11.386;2023-05-19T06:39:42;95647.38;;;16.24;53.79
79577;BME280;69045;48.136;11.386;2023-05-19T06:42:11;95662.25;;;16.30;53.81
79577;BME280;69045;48.136;11.386;2023-05-19T06:44:57;95660.91;;;16.28;54.48
79577;BME280;69045;48.136;11.386;2023-05-19T06:47:26;95656.88;;;16.42;53.00
79577;BME280;69045;48.136;11.386;2023-05-19T06:49:55;95652.47;;;16.48;53.18
79577;BME280;69045;48.136;11.386;2023-05-19T06:52:28;95662.34;;;16.57;52.80
79577;BME280;69045;48.136;11.386;2023-05-19T06:54:56;95670.19;;;16.69;53.47
79577;BME280;69045;48.136;11.386;2023-05-19T06:57:25;95664.56;;;16.65;52.78
79577;BME280;69045;48.136;11.386;2023-05-19T06:59:53;95669.16;;;16.92;53.12
79577;BME280;69045;48.136;11.386;2023-05-19T07:02:23;95661.25;;;17.19;52.70
79577;BME280;69045;48.136;11.386;2023-05-19T07:04:51;95662.28;;;17.45;51.60
79577;BME280;69045;48.136;11.386;2023-05-19T07:07:21;95659.09;;;17.43;49.75
79577;BME280;69045;48.136;11.386;2023-05-19T07:09:51;95664.25;;;17.28;51.12
79577;BME280;69045;48.136;11.386;2023-05-19T07:12:20;95668.19;;;17.52;50.88
79577;BME280;69045;48.136;11.386;2023-05-19T07:14:49;95653.34;;;17.78;50.71
79577;BME280;69045;48.136;11.386;2023-05-19T07:17:17;95653.22;;;18.00;49.65
79577;BME280;69045;48.136;11.386;2023-05-19T07:19:47;95661.13;;;18.32;48.97
79577;BME280;69045;48.136;11.386;2023-05-19T07:22:15;95653.75;;;18.39;47.48
79577;BME280;69045;48.136;11.386;2023-05-19T07:24:43;95656.81;;;18.63;48.19
79577;BME280;69045;48.136;11.386;2023-05-19T07:27:13;95664.31;;;18.81;46.73
79577;BME280;69045;48.136;11.386;2023-05-19T07:29:42;95663.53;;;18.81;46.21
79577;BME280;69045;48.136;11.386;2023-05-19T07:32:11;95659.84;;;18.92;47.99
79577;BME280;69045;48.136;11.386;2023-05-19T07:34:39;95660.38;;;18.94;45.78
79577;BME280;69045;48.136;11.386;2023-05-19T07:37:07;95657.78;;;19.04;46.97
79577;BME280;69045;48.136;11.386;2023-05-19T07:39:36;95658.09;;;19.18;45.44
79577;BME280;69045;48.136;11.386;2023-05-19T07:42:04;95646.09;;;19.05;44.68
79577;BME280;69045;48.136;11.386;2023-05-19T07:44:34;95653.16;;;18.74;45.58
79577;BME280;69045;48.136;11.386;2023-05-19T07:47:02;95659.38;;;18.53;46.41
79577;BME280;69045;48.136;11.386;2023-05-19T07:49:30;95652.03;;;18.18;47.04
79577;BME280;69045;48.136;11.386;2023-05-19T07:51:59;95659.75;;;18.24;47.65
79577;BME280;69045;48.136;11.386;2023-05-19T07:54:27;95652.03;;;18.18;47.26
79577;BME280;69045;48.136;11.386;2023-05-19T07:56:56;95660.78;;;18.18;47.06
79577;BME280;69045;48.136;11.386;2023-05-19T07:59:24;95654.81;;;18.38;46.87
79577;BME280;69045;48.136;11.386;2023-05-19T08:01:54;95651.28;;;18.70;47.03
79577;BME280;69045;48.136;11.386;2023-05-19T08:04:22;95664.31;;;18.81;44.81
79577;BME280;69045;48.136;11.386;2023-05-19T08:06:50;95655.78;;;18.74;45.55
79577;BME280;69045;48.136;11.386;2023-05-19T08:09:18;95661.28;;;18.63;45.85
79577;BME280;69045;48.136;11.386;2023-05-19T08:11:47;95657.03;;;18.57;47.11
79577;BME280;69045;48.136;11.386;2023-05-19T08:14:15;95651.50;;;18.63;46.91
79577;BME280;69045;48.136;11.386;2023-05-19T08:16:44;95656.63;;;18.33;46.60
79577;BME280;69045;48.136;11.386;2023-05-19T08:19:14;95655.16;;;18.10;47.13
79577;BME280;69045;48.136;11.386;2023-05-19T08:21:42;95653.97;;;17.90;48.74
79577;BME280;69045;48.136;11.386;2023-05-19T08:24:11;95644.66;;;17.88;48.30
79577;BME280;69045;48.136;11.386;2023-05-19T08:26:39;95646.75;;;17.86;48.64
79577;BME280;69045;48.136;11.386;2023-05-19T08:29:07;95644.44;;;17.89;48.45
79577;BME280;69045;48.136;11.386;2023-05-19T08:31:36;95638.56;;;17.87;49.03
79577;BME280;69045;48.136;11.386;2023-05-19T08:34:04;95639.13;;;17.94;49.20
79577;BME280;69045;48.136;11.386;2023-05-19T08:36:34;95646.34;;;17.99;49.06
79577;BME280;69045;48.136;11.386;2023-05-19T08:39:03;95636.03;;;18.03;48.47
79577;BME280;69045;48.136;11.386;2023-05-19T08:41:32;95638.41;;;18.04;49.15
79577;BME280;69045;48.136;11.386;2023-05-19T08:44:00;95645.91;;;17.80;49.28
79577;BME280;69045;48.136;11.386;2023-05-19T08:46:28;95643.19;;;17.70;48.33
79577;BME280;69045;48.136;11.386;2023-05-19T08:49:04;95638.34;;;17.62;48.88
79577;BME280;69045;48.136;11.386;2023-05-19T08:51:47;95643.41;;;18.00;49.60
79577;BME280;69045;48.136;11.386;2023-05-19T08:54:17;95636.50;;;18.37;48.53
79577;BME280;69045;48.136;11.386;2023-05-19T08:56:47;95639.75;;;18.54;47.91
79577;BME280;69045;48.136;11.386;2023-05-19T08:59:16;95643.75;;;18.62;47.27
79577;BME280;69045;48.136;11.386;2023-05-19T09:01:46;95643.22;;;18.60;47.13
79577;BME280;69045;48.136;11.386;2023-05-19T09:04:16;95638.47;;;18.57;47.51
79577;BME280;69045;48.136;11.386;2023-05-19T09:06:46;95647.91;;;18.37;47.58
79577;BME280;69045;48.136;11.386;2023-05-19T09:09:16;95634.66;;;18.00;48.29
79577;BME280;69045;48.136;11.386;2023-05-19T09:11:44;95634.69;;;17.68;48.28
79577;BME280;69045;48.136;11.386;2023-05-19T09:14:13;95630.09;;;17.58;49.22
79577;BME280;69045;48.136;11.386;2023-05-19T09:16:42;95628.44;;;17.52;49.08
79577;BME280;69045;48.136;11.386;2023-05-19T09:19:15;95631.81;;;17.42;49.67
79577;BME280;69045;48.136;11.386;2023-05-19T09:21:45;95637.97;;;17.48;49.50
79577;BME280;69045;48.136;11.386;2023-05-19T09:24:14;95641.09;;;17.45;48.67
79577;BME280;69045;48.136;11.386;2023-05-19T09:26:42;95645.00;;;17.37;49.55
79577;BME280;69045;48.136;11.386;2023-05-19T09:29:13;95638.31;;;17.30;50.16
79577;BME280;69045;48.136;11.386;2023-05-19T09:31:48;95633.78;;;17.25;49.76
79577;BME280;69045;48.136;11.386;2023-05-19T09:34:17;95635.13;;;17.28;50.24
79577;BME280;69045;48.136;11.386;2023-05-19T09:36:48;95641.22;;;17.28;49.83
79577;BME280;69045;48.136;11.386;2023-05-19T09:39:18;95640.44;;;17.28;49.74
79577;BME280;69045;48.136;11.386;2023-05-19T09:41:49;95634.34;;;17.05;50.46
79577;BME280;69045;48.136;11.386;2023-05-19T09:44:22;95635.81;;;16.91;49.84
79577;BME280;69045;48.136;11.386;2023-05-19T09:46:55;95630.75;;;16.89;50.88
79577;BME280;69045;48.136;11.386;2023-05-19T09:49:25;95636.41;;;16.98;50.67
79577;BME280;69045;48.136;11.386;2023-05-19T09:51:57;95633.09;;;17.13;50.12
79577;BME280;69045;48.136;11.386;2023-05-19T09:54:26;95634.63;;;17.31;50.20
79577;BME280;69045;48.136;11.386;2023-05-19T09:56:56;95630.22;;;17.41;49.91
79577;BME280;69045;48.136;11.386;2023-05-19T09:59:27;95633.38;;;17.11;50.55
79577;BME280;69045;48.136;11.386;2023-05-19T10:02:00;95633.47;;;16.73;50.99
79577;BME280;69045;48.136;11.386;2023-05-19T10:04:29;95625.47;;;16.68;51.40
79577;BME280;69045;48.136;11.386;2023-05-19T10:07:03;95627.69;;;16.76;51.57
79577;BME280;69045;48.136;11.386;2023-05-19T10:09:33;95631.50;;;16.85;51.65
79577;BME280;69045;48.136;11.386;2023-05-19T10:12:04;95627.00;;;16.85;51.74
79577;BME280;69045;48.136;11.386;2023-05-19T10:14:35;95619.78;;;17.03;51.21
79577;BME280;69045;48.136;11.386;2023-05-19T10:17:04;95619.19;;;17.23;50.74
79577;BME280;69045;48.136;11.386;2023-05-19T10:19:36;95622.22;;;17.36;49.94
79577;BME280;69045;48.136;11.386;2023-05-19T10:22:07;95624.63;;;17.38;49.65
79577;BME280;69045;48.136;11.386;2023-05-19T10:24:35;95623.94;;;17.21;49.79
79577;BME280;69045;48.136;11.386;2023-05-19T10:27:09;95630.78;;;17.16;50.70
79577;BME280;69045;48.136;11.386;2023-05-19T10:29:41;95623.03;;;17.10;50.52
79577;BME280;69045;48.136;11.386;2023-05-19T10:32:17;95629.38;;;17.09;50.25
79577;BME280;69045;48.136;11.386;2023-05-19T10:35:07;95620.03;;;17.01;50.41
79577;BME280;69045;48.136;11.386;2023-05-19T10:37:45;95630.94;;;16.83;50.58
79577;BME280;69045;48.136;11.386;2023-05-19T10:40:23;95622.81;;;16.68;51.42
79577;BME280;69045;48.136;11.386;2023-05-19T10:43:07;95634.06;;;16.58;51.65
79577;BME280;69045;48.136;11.386;2023-05-19T10:45:47;95627.72;;;16.59;52.53
79577;BME280;69045;48.136;11.386;2023-05-19T10:48:19;95626.72;;;16.82;52.30
79577;BME280;69045;48.136;11.386;2023-05-19T10:50:48;95615.53;;;17.02;50.96
79577;BME280;69045;48.136;11.386;2023-05-19T10:53:21;95620.13;;;17.11;51.13
79577;BME280;69045;48.136;11.386;2023-05-19T10:55:51;95628.94;;;17.17;50.39
79577;BME280;69045;48.136;11.386;2023-05-19T10:58:36;95616.88;;;17.04;50.79
79577;BME280;69045;48.136;11.386;2023-05-19T11:01:11;95610.59;;;17.10;51.85
79577;BME280;69045;48.136;11.386;2023-05-19T11:03:44;95615.63;;;17.39;51.54
79577;BME280;69045;48.136;11.386;2023-05-19T11:06:27;95620.38;;;17.69;49.80
79577;BME280;69045;48.136;11.386;2023-05-19T11:09:00;95623.66;;;17.76;50.47
79577;BME280;69045;48.136;11.386;2023-05-19T11:11:44;95618.44;;;17.91;49.94
79577;BME280;69045;48.136;11.386;2023-05-19T11:14:15;95619.16;;;18.19;48.50
79577;BME280;69045;48.136;11.386;2023-05-19T11:16:49;95608.13;;;18.37;48.16
79577;BME280;69045;48.136;11.386;2023-05-19T11:19:24;95616.31;;;18.31;47.84
79577;BME280;69045;48.136;11.386;2023-05-19T11:21:56;95621.16;;;18.01;49.04
79577;BME280;69045;48.136;11.386;2023-05-19T11:24:37;95614.47;;;17.94;50.37
79577;BME280;69045;48.136;11.386;2023-05-19T11:27:19;95609.84;;;18.11;50.07
79577;BME280;69045;48.136;11.386;2023-05-19T11:29:48;95609.16;;;18.31;49.28
79577;BME280;69045;48.136;11.386;2023-05-19T11:32:18;95606.09;;;18.60;48.37
79577;BME280;69045;48.136;11.386;2023-05-19T11:34:49;95616.72;;;18.65;47.81
79577;BME280;69045;48.136;11.386;2023-05-19T11:37:22;95618.56;;;18.59;47.38
79577;BME280;69045;48.136;11.386;2023-05-19T11:39:52;95611.38;;;18.49;46.85
79577;BME280;69045;48.136;11.386;2023-05-19T11:42:23;95613.91;;;18.29;47.96
79577;BME280;69045;48.136;11.386;2023-05-19T11:44:55;95614.56;;;18.04;48.50
79577;BME280;69045;48.136;11.386;2023-05-19T11:47:23;95622.13;;;17.85;49.14
79577;BME280;69045;48.136;11.386;2023-05-19T11:49:54;95616.34;;;17.61;49.55
79577;BME280;69045;48.136;11.386;2023-05-19T11:52:23;95620.72;;;17.45;49.87
79577;BME280;69045;48.136;11.386;2023-05-19T11:54:58;95607.13;;;17.37;50.69
79577;BME280;69045;48.136;11.386;2023-05-19T11:57:28;95610.06;;;17.40;51.53
79577;BME280;69045;48.136;11.386;2023-05-19T12:00:00;95613.53;;;17.41;51.25
79577;BME280;69045;48.136;11.386;2023-05-19T12:02:31;95614.03;;;17.38;51.20
79577;BME280;69045;48.136;11.386;2023-05-19T12:05:00;95614.56;;;17.40;51.24
79577;BME280;69045;48.136;11.386;2023-05-19T12:07:28;95618.66;;;17.53;50.42
79577;BME280;69045;48.136;11.386;2023-05-19T12:09:58;95619.50;;;17.58;50.97
79577;BME280;69045;48.136;11.386;2023-05-19T12:12:28;95620.28;;;17.59;51.15
79577;BME280;69045;48.136;11.386;2023-05-19T12:15:02;95619.53;;;17.63;50.82
79577;BME280;69045;48.136;11.386;2023-05-19T12:17:31;95612.94;;;17.66;49.76
79577;BME280;69045;48.136;11.386;2023-05-19T12:20:01;95621.19;;;17.69;49.46
79577;BME280;69045;48.136;11.386;2023-05-19T12:22:31;95618.22;;;17.66;49.93
79577;BME280;69045;48.136;11.386;2023-05-19T12:25:01;95624.53;;;17.60;49.56
79577;BME280;69045;48.136;11.386;2023-05-19T12:27:34;95620.50;;;17.52;50.54
79577;BME280;69045;48.136;11.386;2023-05-19T12:30:05;95612.50;;;17.47;50.19
79577;BME280;69045;48.136;11.386;2023-05-19T12:32:34;95610.06;;;17.40;50.69
79577;BME280;69045;48.136;11.386;2023-05-19T12:35:04;95610.13;;;17.45;51.10
79577;BME280;69045;48.136;11.386;2023-05-19T12:37:34;95610.16;;;17.51;50.94
79577;BME280;69045;48.136;11.386;2023-05-19T12:40:07;95618.75;;;17.63;50.75
79577;BME280;69045;48.136;11.386;2023-05-19T12:42:35;95608.69;;;17.65;50.02
79577;BME280;69045;48.136;11.386;2023-05-19T12:45:05;95604.00;;;17.72;50.81
79577;BME280;69045;48.136;11.386;2023-05-19T12:47:35;95613.91;;;17.87;50.91
79577;BME280;69045;48.136;11.386;2023-05-19T12:50:05;95609.22;;;17.99;49.76
79577;BME280;69045;48.136;11.386;2023-05-19T12:52:41;95602.66;;;18.12;49.66
79577;BME280;69045;48.136;11.386;2023-05-19T12:55:11;95604.53;;;18.11;49.78
79577;BME280;69045;48.136;11.386;2023-05-19T12:57:43;95605.56;;;18.05;48.80
79577;BME280;69045;48.136;11.386;2023-05-19T13:00:16;95608.72;;;18.02;49.37
79577;BME280;69045;48.136;11.386;2023-05-19T13:02:57;95606.84;;;17.97;49.60
79577;BME280;69045;48.136;11.386;2023-05-19T13:05:29;95613.16;;;17.91;49.40
79577;BME280;69045;48.136;11.386;2023-05-19T13:08:01;95611.81;;;17.89;49.69
79577;BME280;69045;48.136;11.386;2023-05-19T13:10:32;95612.06;;;17.87;49.76
79577;BME280;69045;48.136;11.386;2023-05-19T13:13:19;95618.41;;;17.86;50.25